首页
METAR-TAF:

METAR-TAF

机场 :

英迪拉·甘地国际机场

新德里, 印度

纬度: 28-34N, 经度: 077-07E, 海拔: 220米

当前天气观测

该预报发布于23分钟前的17:30 UTC
风速3节,风向
温度 36°C
湿度 37%
气压 999 hPa
能見度: 3500
散云层高于4000英尺
多云层高于10000英尺

METAR: VIDP 231730Z 08003KT 3500 HZ SCT040 BKN100 36/19 Q0999 NOSIG

时间: 23:23 (17:53 UTC)

预报

该预报发布于52分钟前的17:01 UTC
预报有效从23日的 18点(UTC)到 24日的 24点(UTC)
风速5节,风向东转东南
能見度: 2500
散云层高于4000英尺
多云层高于10000英尺
短暂存在
从 23日的 20点(UTC)到 24日的 02点(UTC)
少量云层高于4000英尺, 积雨云.
成为
从 24日的 05点(UTC)到 24日的 07点(UTC)
风速6节,风向西转西北
能見度: 4000
少量云层高于4000英尺
散云层高于10000英尺
短暂存在
从 24日的 09点(UTC)到 24日的 14点(UTC)
少量云层高于3500英尺, 积雨云.
成为
从 24日的 16点(UTC)到 24日的 17点(UTC)
风速5节,风向西转西南
能見度: 3000

TAF: VIDP 231701Z 2318/2424 12005KT 2500 HZ SCT040 BKN100 TEMPO 2320/2402 FEW040CB BECMG 2405/2407 29006KT 4000 HZ FEW040 SCT100 TEMPO 2409/2414 FEW035CB BECMG 2416/2417 25005KT 3000 HZ

超过4000个机场的气象观测和天气预报(METAR&TAF报告)。

可查询的气象台以黄色和红色小点在地图上表示。

将鼠标移到小点上方,可查看气象台名称。

然后点击查看天气观测和预报。

如需切换地图:点击带黑十字的绿色按钮放大地图;点击带横线的绿色按钮缩小地图;或者点击绿色箭头查看邻近地区的地图。


METAR-TAF: